Ledyard, CT (06339)

1:26 PM EST on February 14, 2016 (GMT -0500)
Highlands, Ledyard CT | | Change Station
CLOSE
Current Station
Personal Weather Station
Location: Ledyard, CT
Elevation: 259 ft
Nearby Weather Stations

Elev 259 ft 41.43 °N, 71.98 °W | Updated 28 seconds ago

Clear
Clear
9.5 °F
Feels Like 2 °F
N
4.2
Wind Variable Wind from SSW

Today
High -- | Low -- °F
--% Chance of Precip.
Yesterday
High -- | Low -- °F
Precip. -- in
Pressure 30.43 in
Visibility 10.0 miles
Clouds Clear
Windchill 2 °F
Dew Point -15 °F
Humidity 31%
Rainfall 0.00 in
Snow Depth Not available.
6:45 AM 5:19 PM
Waxing Crescent, 44% visible
METAR KGON 141756Z 34011G21KT 10SM CLR M14/M19 A3043 RMK AO2 SLP305 T11391194 11139 21222 58003 $
Pressure 30.43 in
Visibility 10.0 miles
Clouds Clear
Windchill 2 °F
Dew Point -15 °F
Humidity 31%
Rainfall 0.00 in
Snow Depth Not available.
6:45 AM 5:19 PM
Waxing Crescent, 44% visible
METAR KGON 141756Z 34011G21KT 10SM CLR M14/M19 A3043 RMK AO2 SLP305 T11391194 11139 21222 58003 $

10-Day Weather Forecast

Almanac

Astronomy

Feb. 14, 2016 Rise Set
Actual Time
Civil Twilight
Nautical Twilight
Astronomical Twilight
Moon
Length of Visible Light
Length of Day
Tomorrow will be .
, % of the Moon is Illuminated

Today's Extremes

State Highs State Lows

Community

WunderPhotos

Upload Photos

1,892,869 photos uploaded!

WunderBlog® & News

Nearby

Air Quality

  Air Quality AQ Index Pollutant
Not available.

Snow Depth

Station Depth Elevation

Earthquake Activity

City Distance Mag. Time & Date
Minimum magnitude displayed is 2.5.

Coastal Water Temperatures

Place Temperature

Stations

Nearby Weather Stations

Station Location Temp. Windchill Dew Point Humidity Wind Precip. Elev Updated Type
                   

Watches & Warnings

There are currently no watches in effect.